createdAt,value
2022-11-04T00:02:08.527Z,98416.66
2022-11-04T00:04:36.501Z,98417.50
2022-11-04T00:07:23.402Z,98402.31
2022-11-04T00:09:50.185Z,98423.41
2022-11-04T00:12:26.128Z,98423.34
2022-11-04T00:14:53.757Z,98420.78
2022-11-04T00:17:22.143Z,98413.09
2022-11-04T00:20:13.413Z,98429.13
2022-11-04T00:23:01.149Z,98419.13
2022-11-04T00:25:47.312Z,98428.41
2022-11-04T00:28:36.239Z,98428.56
2022-11-04T00:31:24.374Z,98428.66
2022-11-04T00:33:54.198Z,98445.72
2022-11-04T00:36:23.629Z,98444.06
2022-11-04T00:38:50.886Z,98453.41
2022-11-04T00:41:26.989Z,98449.25
2022-11-04T00:44:02.316Z,98447.63
2022-11-04T00:46:32.142Z,98452.84
2022-11-04T00:48:59.399Z,98449.59
2022-11-04T00:51:27.047Z,98453.88
2022-11-04T00:53:54.255Z,98463.25
2022-11-04T00:56:21.375Z,98466.72
2022-11-04T00:58:49.881Z,98463.41
2022-11-04T01:01:18.900Z,98475.31
2022-11-04T01:03:51.357Z,98473.69
2022-11-04T01:06:20.676Z,98481.41
2022-11-04T01:08:48.356Z,98481.53
2022-11-04T01:11:16.562Z,98485.84
2022-11-04T01:13:43.376Z,98485.16
2022-11-04T01:16:11.756Z,98489.53
2022-11-04T01:18:39.850Z,98496.34
2022-11-04T01:21:09.054Z,98499.00
2022-11-04T01:23:36.455Z,98505.84
2022-11-04T01:26:14.111Z,98508.44
2022-11-04T01:28:40.855Z,98516.13
2022-11-04T01:31:10.741Z,98510.19
2022-11-04T01:33:38.842Z,98511.88
2022-11-04T01:36:08.515Z,98512.75
2022-11-04T01:38:35.353Z,98508.53
2022-11-04T01:41:02.930Z,98506.03
2022-11-04T01:43:50.525Z,98511.19
2022-11-04T01:46:42.938Z,98512.25
2022-11-04T01:49:37.957Z,98512.34
2022-11-04T01:52:19.857Z,98514.97
2022-11-04T01:54:50.804Z,98515.91
2022-11-04T01:57:29.590Z,98513.41
2022-11-04T02:00:03.400Z,98521.03
2022-11-04T02:02:30.709Z,98516.81
2022-11-04T02:04:57.506Z,98517.63
2022-11-04T02:07:24.901Z,98510.94
2022-11-04T02:09:52.012Z,98506.75
2022-11-04T02:12:37.383Z,98506.78
2022-11-04T02:15:05.622Z,98503.47
2022-11-04T02:18:22.419Z,98504.28
2022-11-04T02:21:23.855Z,98517.13
2022-11-04T02:24:11.516Z,98502.78
2022-11-04T02:27:25.957Z,98512.94
2022-11-04T02:30:09.971Z,98511.31
2022-11-04T02:33:13.724Z,98507.13
2022-11-04T02:36:09.425Z,98508.84
2022-11-04T02:38:47.266Z,98505.44
2022-11-04T02:41:32.897Z,98500.31
2022-11-04T02:44:16.022Z,98497.78
2022-11-04T02:47:01.290Z,98499.53
2022-11-04T02:49:47.457Z,98491.06
2022-11-04T02:52:25.168Z,98480.91
2022-11-04T02:55:22.740Z,98479.28
2022-11-04T02:57:53.847Z,98476.81
2022-11-04T03:00:21.350Z,98477.66
2022-11-04T03:03:04.019Z,98485.13
2022-11-04T03:05:38.221Z,98480.91
2022-11-04T03:08:16.751Z,98479.19
2022-11-04T03:10:55.050Z,98483.41
2022-11-04T03:13:44.326Z,98480.81
2022-11-04T03:16:29.536Z,98483.41
2022-11-04T03:19:26.716Z,98482.53
2022-11-04T03:22:09.815Z,98473.28
2022-11-04T03:24:37.091Z,98484.31
2022-11-04T03:27:27.492Z,98486.84
2022-11-04T03:30:09.286Z,98483.47
2022-11-04T03:32:57.162Z,98482.69
2022-11-04T03:35:25.048Z,98479.34
2022-11-04T03:37:52.021Z,98473.34
2022-11-04T03:40:20.912Z,98472.56
2022-11-04T03:43:11.445Z,98469.25
2022-11-04T03:45:41.900Z,98463.34
2022-11-04T03:48:09.440Z,98454.88
2022-11-04T03:50:47.584Z,98451.50
2022-11-04T03:53:20.051Z,98454.91
2022-11-04T03:56:36.492Z,98457.50
2022-11-04T03:59:47.293Z,98453.44
2022-11-04T04:02:52.071Z,98464.50
2022-11-04T04:05:23.760Z,98456.13
2022-11-04T04:08:06.944Z,98458.72
2022-11-04T04:10:48.155Z,98465.53
2022-11-04T04:13:38.936Z,98465.63
2022-11-04T04:16:15.911Z,98470.03
2022-11-04T04:18:57.556Z,98475.28
2022-11-04T04:21:36.978Z,98473.75
2022-11-04T04:24:27.015Z,98467.09
2022-11-04T04:27:15.711Z,98477.44
2022-11-04T04:29:45.729Z,98465.75
2022-11-04T04:32:14.317Z,98475.13
2022-11-04T04:34:41.402Z,98474.34
2022-11-04T04:37:15.696Z,98477.84
2022-11-04T04:40:09.012Z,98486.34
2022-11-04T04:42:56.380Z,98489.81
2022-11-04T04:45:33.141Z,98494.16
2022-11-04T04:48:00.237Z,98498.44
2022-11-04T04:50:34.364Z,98492.59
2022-11-04T04:53:03.042Z,98493.44
2022-11-04T04:55:37.530Z,98503.56
2022-11-04T04:58:07.726Z,98500.22
2022-11-04T05:00:34.424Z,98503.56
2022-11-04T05:03:01.141Z,98495.88
2022-11-04T05:05:27.917Z,98498.31
2022-11-04T05:07:54.643Z,98498.25
2022-11-04T05:10:21.499Z,98494.81
2022-11-04T05:13:06.611Z,98494.78
2022-11-04T05:15:34.679Z,98493.88
2022-11-04T05:18:02.721Z,98494.69
2022-11-04T05:20:30.491Z,98489.56
2022-11-04T05:22:57.424Z,98482.78
2022-11-04T05:25:24.176Z,98492.94
2022-11-04T05:27:50.853Z,98491.19
2022-11-04T05:30:17.908Z,98488.66
2022-11-04T05:32:44.634Z,98496.28
2022-11-04T05:35:11.420Z,98501.25
2022-11-04T05:37:38.191Z,98500.38
2022-11-04T05:40:05.697Z,98492.78
2022-11-04T05:42:32.436Z,98496.19
2022-11-04T05:44:59.157Z,98496.28
2022-11-04T05:47:25.876Z,98496.31
2022-11-04T05:49:52.618Z,98490.50
2022-11-04T05:52:19.375Z,98502.44
2022-11-04T05:54:46.072Z,98501.72
2022-11-04T05:57:12.829Z,98498.41
2022-11-04T05:59:39.547Z,98499.38
2022-11-04T06:02:07.443Z,98496.13
2022-11-04T06:04:34.449Z,98501.28
2022-11-04T06:07:01.178Z,98500.50
2022-11-04T06:09:39.794Z,98499.78
2022-11-04T06:12:16.782Z,98511.66
2022-11-04T06:14:44.459Z,98505.81
2022-11-04T06:17:20.524Z,98518.53
2022-11-04T06:19:48.286Z,98526.13
2022-11-04T06:22:19.049Z,98527.00
2022-11-04T06:24:46.070Z,98522.78
2022-11-04T06:27:13.597Z,98531.16
2022-11-04T06:29:41.243Z,98537.03
2022-11-04T06:32:15.808Z,98532.75
2022-11-04T06:34:42.987Z,98530.22
2022-11-04T06:37:10.984Z,98542.91
2022-11-04T06:39:38.118Z,98540.41
2022-11-04T06:42:05.718Z,98553.16
2022-11-04T06:44:34.342Z,98555.72
2022-11-04T06:47:01.748Z,98563.38
2022-11-04T06:49:28.553Z,98565.94
2022-11-04T06:51:55.282Z,98566.78
2022-11-04T06:54:21.997Z,98571.78
2022-11-04T06:56:49.095Z,98575.09
2022-11-04T06:59:19.393Z,98578.38
2022-11-04T07:01:46.782Z,98569.88
2022-11-04T07:04:13.672Z,98566.44
2022-11-04T07:06:44.406Z,98576.41
2022-11-04T07:09:14.967Z,98579.72
2022-11-04T07:11:43.985Z,98583.78
2022-11-04T07:14:11.717Z,98585.31
2022-11-04T07:16:38.571Z,98587.78
2022-11-04T07:19:05.800Z,98599.38
2022-11-04T07:21:32.692Z,98599.22
2022-11-04T07:24:00.797Z,98604.06
2022-11-04T07:26:27.500Z,98615.69
2022-11-04T07:28:54.272Z,98609.56
2022-11-04T07:31:22.137Z,98614.38
2022-11-04T07:33:51.164Z,98618.38
2022-11-04T07:36:19.440Z,98624.91
2022-11-04T07:38:46.918Z,98628.03
2022-11-04T07:41:15.181Z,98626.16
2022-11-04T07:43:41.901Z,98631.84
2022-11-04T07:46:14.664Z,98635.84
2022-11-04T07:48:41.395Z,98632.19
2022-11-04T07:51:12.890Z,98631.97
2022-11-04T07:53:39.625Z,98635.06
2022-11-04T07:56:11.654Z,98639.09
2022-11-04T07:58:38.641Z,98642.41
2022-11-04T08:01:12.793Z,98652.47
2022-11-04T08:03:40.127Z,98654.09
2022-11-04T08:06:10.206Z,98659.91
2022-11-04T08:08:37.540Z,98661.56
2022-11-04T08:11:16.886Z,98670.88
2022-11-04T08:13:46.138Z,98660.66
2022-11-04T08:16:20.018Z,98667.41
2022-11-04T08:18:49.015Z,98667.41
2022-11-04T08:21:16.677Z,98669.91
2022-11-04T08:23:44.472Z,98666.50
2022-11-04T08:26:14.555Z,98669.09
2022-11-04T08:28:41.696Z,98675.09
2022-11-04T08:31:15.047Z,98666.59
2022-11-04T08:33:42.249Z,98674.22
2022-11-04T08:36:17.675Z,98673.41
2022-11-04T08:38:44.815Z,98677.63
2022-11-04T08:41:14.721Z,98681.00
2022-11-04T08:43:41.893Z,98678.44
2022-11-04T08:46:10.341Z,98679.25
2022-11-04T08:48:39.235Z,98671.47
2022-11-04T08:51:13.454Z,98669.59
2022-11-04T08:53:40.158Z,98678.84
2022-11-04T08:56:12.048Z,98679.66
2022-11-04T08:58:38.784Z,98684.69
2022-11-04T09:01:06.896Z,98685.44
2022-11-04T09:03:34.763Z,98682.84
2022-11-04T09:06:01.623Z,98686.19
2022-11-04T09:08:28.376Z,98687.91
2022-11-04T09:10:55.104Z,98699.66
2022-11-04T09:13:21.813Z,98688.47
2022-11-04T09:15:49.027Z,98681.50
2022-11-04T09:18:16.246Z,98682.22
2022-11-04T09:20:42.997Z,98690.34
2022-11-04T09:23:10.808Z,98692.53
2022-11-04T09:25:37.938Z,98706.59
2022-11-04T09:28:05.113Z,98692.59
2022-11-04T09:30:32.652Z,98706.53
2022-11-04T09:32:59.907Z,98701.84
2022-11-04T09:35:29.508Z,98697.81
2022-11-04T09:37:56.526Z,98694.41
2022-11-04T09:40:25.852Z,98700.31
2022-11-04T09:43:04.728Z,98700.34
2022-11-04T09:45:33.539Z,98703.88
2022-11-04T09:48:05.850Z,98709.28
2022-11-04T09:50:48.886Z,98700.38
2022-11-04T09:53:28.368Z,98705.91
2022-11-04T09:56:01.284Z,98702.06
2022-11-04T09:58:34.622Z,98696.38
2022-11-04T10:01:13.268Z,98698.28
2022-11-04T10:04:07.328Z,98706.22
2022-11-04T10:07:16.961Z,98716.16
2022-11-04T10:09:49.338Z,98727.13
2022-11-04T10:12:25.169Z,98732.19
2022-11-04T10:15:18.128Z,98733.03
2022-11-04T10:17:58.366Z,98728.94
2022-11-04T10:20:45.319Z,98732.50
2022-11-04T10:23:26.741Z,98724.13
2022-11-04T10:26:17.555Z,98729.38
2022-11-04T10:28:58.622Z,98729.41
2022-11-04T10:31:25.500Z,98738.81
2022-11-04T10:34:03.462Z,98736.31
2022-11-04T10:36:31.632Z,98735.59
2022-11-04T10:39:01.957Z,98734.94
2022-11-04T10:41:38.622Z,98732.44
2022-11-04T10:44:33.371Z,98736.78
2022-11-04T10:47:22.842Z,98730.06
2022-11-04T10:50:31.119Z,98724.06
2022-11-04T10:53:20.831Z,98733.53
2022-11-04T10:56:40.424Z,98730.69
2022-11-04T10:59:49.252Z,98744.44
2022-11-04T11:02:16.853Z,98744.75
2022-11-04T11:04:47.780Z,98743.97
2022-11-04T11:07:22.861Z,98742.84
2022-11-04T11:09:54.706Z,98746.00
2022-11-04T11:12:50.776Z,98746.84
2022-11-04T11:15:30.780Z,98742.41
2022-11-04T11:18:16.773Z,98737.91
2022-11-04T11:20:51.416Z,98749.81
2022-11-04T11:23:42.758Z,98754.00
2022-11-04T11:26:30.150Z,98750.88
2022-11-04T11:29:02.375Z,98758.13
2022-11-04T11:31:40.615Z,98759.44
2022-11-04T11:34:28.242Z,98755.00
2022-11-04T11:36:57.487Z,98762.25
2022-11-04T11:39:30.882Z,98763.59
2022-11-04T11:42:16.902Z,98771.06
2022-11-04T11:45:10.703Z,98767.69
2022-11-04T11:47:42.004Z,98767.69
2022-11-04T11:50:34.201Z,98772.03
2022-11-04T11:54:03.831Z,98772.25
2022-11-04T11:57:11.551Z,98775.56
2022-11-04T12:03:10.521Z,98782.94
2022-11-04T12:10:01.119Z,98798.19
2022-11-04T12:12:56.519Z,98794.19
2022-11-04T12:15:34.348Z,98800.44
2022-11-04T12:18:47.231Z,98803.63
2022-11-04T12:21:33.389Z,98807.84
2022-11-04T12:24:30.712Z,98812.94
2022-11-04T12:27:30.874Z,98822.44
2022-11-04T12:30:22.303Z,98822.88
2022-11-04T12:33:29.415Z,98825.16
2022-11-04T12:36:25.340Z,98825.50
2022-11-04T12:39:12.913Z,98821.47
2022-11-04T12:44:53.161Z,98827.03
2022-11-04T12:47:35.023Z,98832.06
2022-11-04T12:50:47.619Z,98830.03
2022-11-04T12:53:41.593Z,98832.19
2022-11-04T12:56:18.398Z,98828.91
2022-11-04T12:59:04.078Z,98828.91
2022-11-04T13:01:50.222Z,98844.19
2022-11-04T13:04:29.519Z,98845.72
2022-11-04T13:07:19.060Z,98837.03
2022-11-04T13:10:04.820Z,98842.81
2022-11-04T13:12:44.692Z,98847.03
2022-11-04T13:15:24.646Z,98853.72
2022-11-04T13:18:07.585Z,98853.78
2022-11-04T13:20:53.310Z,98861.56
2022-11-04T13:23:32.042Z,98863.50
2022-11-04T13:26:01.996Z,98865.53
2022-11-04T13:28:28.877Z,98864.94
2022-11-04T13:31:12.403Z,98865.22
2022-11-04T13:34:00.398Z,98878.41
2022-11-04T13:37:02.684Z,98877.19
2022-11-04T13:39:44.691Z,98889.41
2022-11-04T13:42:38.949Z,98892.19
2022-11-04T13:45:16.867Z,98888.31
2022-11-04T13:47:58.861Z,98888.50
2022-11-04T13:50:40.561Z,98893.00
2022-11-04T13:53:11.600Z,98884.63
2022-11-04T13:55:51.452Z,98896.72
2022-11-04T13:58:26.977Z,98899.50
2022-11-04T14:01:29.226Z,98901.41
2022-11-04T14:04:14.264Z,98899.16
2022-11-04T14:07:03.842Z,98909.50
2022-11-04T14:09:35.805Z,98909.69
2022-11-04T14:12:14.260Z,98918.34
2022-11-04T14:14:42.264Z,98926.16
2022-11-04T14:17:33.675Z,98940.72
2022-11-04T14:20:09.071Z,98940.03
2022-11-04T14:22:44.587Z,98945.19
2022-11-04T14:25:58.360Z,98939.34
2022-11-04T14:28:29.824Z,98941.22
2022-11-04T14:31:00.981Z,98945.50
2022-11-04T14:33:40.057Z,98941.31
2022-11-04T14:36:21.811Z,98951.59
2022-11-04T14:39:09.847Z,98954.25
2022-11-04T14:42:00.664Z,98964.59
2022-11-04T14:44:41.560Z,98971.41
2022-11-04T14:47:22.726Z,98975.75
2022-11-04T14:49:59.827Z,98980.00
2022-11-04T14:52:34.510Z,98974.94
2022-11-04T14:55:28.009Z,98980.91
2022-11-04T14:58:13.716Z,98986.94
2022-11-04T15:01:02.488Z,98997.19
2022-11-04T15:06:53.490Z,99009.13
2022-11-04T15:09:49.649Z,99012.63
2022-11-04T15:12:38.111Z,99016.91
2022-11-04T15:15:33.305Z,99015.22
2022-11-04T15:18:15.904Z,99014.44
2022-11-04T15:21:00.418Z,99023.72
2022-11-04T15:23:56.781Z,99027.91
2022-11-04T15:26:31.832Z,99026.13
2022-11-04T15:29:07.336Z,99033.66
2022-11-04T15:31:36.605Z,99033.53
2022-11-04T15:34:13.207Z,99045.38
2022-11-04T15:36:43.893Z,99047.88
2022-11-04T15:39:31.230Z,99056.38
2022-11-04T15:42:23.333Z,99062.25
2022-11-04T15:44:53.556Z,99067.47
2022-11-04T15:47:21.800Z,99070.88
2022-11-04T15:49:52.194Z,99071.75
2022-11-04T15:52:29.433Z,99076.03
2022-11-04T15:54:59.841Z,99075.28
2022-11-04T15:57:38.294Z,99073.69
2022-11-04T16:00:16.147Z,99084.88
2022-11-04T16:02:56.234Z,99091.75
2022-11-04T16:05:33.291Z,99095.25
2022-11-04T16:08:21.721Z,99097.91
2022-11-04T16:10:50.045Z,99100.66
2022-11-04T16:13:16.690Z,99104.13
2022-11-04T16:15:52.000Z,99105.03
2022-11-04T16:18:33.072Z,99107.66
2022-11-04T16:21:11.445Z,99112.88
2022-11-04T16:23:47.520Z,99111.31
2022-11-04T16:26:15.846Z,99119.00
2022-11-04T16:28:43.313Z,99121.66
2022-11-04T16:31:34.117Z,99123.38
2022-11-04T16:34:01.505Z,99122.72
2022-11-04T16:36:34.027Z,99130.41
2022-11-04T16:39:09.659Z,99127.09
2022-11-04T16:41:40.079Z,99125.50
2022-11-04T16:44:20.392Z,99129.72
2022-11-04T16:46:47.146Z,99133.66
2022-11-04T16:49:16.637Z,99129.69
2022-11-04T16:51:44.039Z,99140.31
2022-11-04T16:54:10.970Z,99141.41
2022-11-04T16:56:38.936Z,99141.59
2022-11-04T16:59:05.632Z,99142.59
2022-11-04T17:01:32.559Z,99150.38
2022-11-04T17:03:59.335Z,99154.66
2022-11-04T17:06:26.165Z,99156.47
2022-11-04T17:08:53.245Z,99164.16
2022-11-04T17:11:19.927Z,99169.31
2022-11-04T17:13:46.713Z,99169.34
2022-11-04T17:16:14.184Z,99175.38
2022-11-04T17:18:41.608Z,99176.31
2022-11-04T17:21:15.782Z,99175.47
2022-11-04T17:23:43.483Z,99187.41
2022-11-04T17:26:12.875Z,99189.16
2022-11-04T17:28:39.652Z,99195.16
2022-11-04T17:31:06.463Z,99193.53
2022-11-04T17:33:33.524Z,99191.88
2022-11-04T17:36:06.305Z,99199.53
2022-11-04T17:38:34.281Z,99205.56
2022-11-04T17:41:19.427Z,99209.81
2022-11-04T17:44:01.156Z,99211.63
2022-11-04T17:46:35.467Z,99206.59
2022-11-04T17:49:11.363Z,99217.66
2022-11-04T17:51:43.645Z,99216.81
2022-11-04T17:54:11.289Z,99225.31
2022-11-04T17:56:40.474Z,99224.50
2022-11-04T17:59:08.674Z,99231.28
2022-11-04T18:01:36.585Z,99227.94
2022-11-04T18:08:13.519Z,99233.16
2022-11-04T18:10:43.304Z,99235.81
2022-11-04T18:13:10.365Z,99230.72
2022-11-04T18:15:37.245Z,99238.34
2022-11-04T18:18:04.125Z,99242.63
2022-11-04T18:20:30.873Z,99253.66
2022-11-04T18:23:00.030Z,99259.03
2022-11-04T18:25:26.745Z,99267.44
2022-11-04T18:27:53.477Z,99265.28
2022-11-04T18:30:20.364Z,99268.28
2022-11-04T18:32:47.552Z,99278.78
2022-11-04T18:35:14.343Z,99270.34
2022-11-04T18:37:46.740Z,99278.03
2022-11-04T18:40:33.747Z,99281.59
2022-11-04T18:43:18.073Z,99285.06
2022-11-04T18:53:25.851Z,99289.78
2022-11-04T18:55:56.377Z,99288.13
2022-11-04T18:58:25.427Z,99288.97
2022-11-04T19:00:54.035Z,99292.41
2022-11-04T19:03:58.176Z,99294.13
2022-11-04T19:06:49.750Z,99305.25
2022-11-04T19:09:46.087Z,99307.00
2022-11-04T19:12:23.813Z,99312.91
2022-11-04T19:20:25.908Z,99311.31
2022-11-04T19:23:05.028Z,99316.38
2022-11-04T19:33:00.124Z,99325.13
2022-11-04T19:35:54.736Z,99331.00
2022-11-04T19:42:51.425Z,99346.38
2022-11-04T19:46:04.424Z,99349.00
2022-11-04T19:49:07.945Z,99343.97
2022-11-04T19:51:40.869Z,99347.38
2022-11-04T19:54:40.984Z,99357.44
2022-11-04T19:57:26.933Z,99363.25
2022-11-04T20:04:16.038Z,99365.03
2022-11-04T20:06:49.581Z,99374.31
2022-11-04T20:09:21.209Z,99373.47
2022-11-04T20:12:14.778Z,99383.56
2022-11-04T20:14:50.093Z,99390.41
2022-11-04T20:20:15.003Z,99401.41
2022-11-04T20:23:08.414Z,99398.91
2022-11-04T20:33:02.539Z,99409.13
2022-11-04T20:35:45.375Z,99423.53
2022-11-04T20:38:38.957Z,99427.75
2022-11-04T20:45:58.227Z,99443.13
2022-11-04T20:48:33.492Z,99451.59
2022-11-04T20:51:20.424Z,99454.13
2022-11-04T20:53:56.364Z,99460.00
2022-11-04T20:56:28.276Z,99472.69
2022-11-04T20:59:03.350Z,99475.19
2022-11-04T21:01:50.427Z,99478.56
2022-11-04T21:04:33.228Z,99479.47
2022-11-04T21:10:22.699Z,99484.53
2022-11-04T21:16:30.497Z,99490.50
2022-11-04T21:18:58.176Z,99491.31
2022-11-04T21:21:27.775Z,99497.22
2022-11-04T21:23:59.857Z,99496.34
2022-11-04T21:26:30.066Z,99514.16
2022-11-04T21:29:03.329Z,99519.22
2022-11-04T21:31:32.313Z,99516.72
2022-11-04T21:33:59.854Z,99515.06
2022-11-04T21:36:27.098Z,99520.13
2022-11-04T21:38:53.916Z,99521.91
2022-11-04T21:41:27.174Z,99518.56
2022-11-04T21:44:00.391Z,99525.38
2022-11-04T21:46:30.417Z,99530.50
2022-11-04T21:48:58.728Z,99530.53
2022-11-04T21:51:28.989Z,99534.84
2022-11-04T21:54:00.143Z,99535.75
2022-11-04T21:56:31.993Z,99538.34
2022-11-04T21:58:59.054Z,99545.13
2022-11-04T22:01:28.679Z,99543.47
2022-11-04T22:03:59.462Z,99541.00
2022-11-04T22:06:33.619Z,99539.34
2022-11-04T22:09:01.481Z,99540.25
2022-11-04T22:11:31.872Z,99548.78
2022-11-04T22:14:02.009Z,99547.97
2022-11-04T22:16:32.276Z,99551.41
2022-11-04T22:19:03.018Z,99565.00
2022-11-04T22:21:31.577Z,99562.50
2022-11-04T22:23:59.824Z,99565.91
2022-11-04T22:26:30.428Z,99570.97
2022-11-04T22:28:58.079Z,99574.41
2022-11-04T22:31:34.676Z,99576.09
2022-11-04T22:34:03.400Z,99579.47
2022-11-04T22:36:32.831Z,99577.81
2022-11-04T22:39:00.104Z,99571.88
2022-11-04T22:41:32.011Z,99578.69
2022-11-04T22:43:59.302Z,99572.78
2022-11-04T22:46:32.758Z,99587.19
2022-11-04T22:48:59.734Z,99590.59
2022-11-04T22:51:26.627Z,99593.19
2022-11-04T22:53:58.051Z,99597.44
2022-11-04T22:56:25.825Z,99600.88
2022-11-04T22:58:53.976Z,99597.53
2022-11-04T23:01:21.105Z,99603.50
2022-11-04T23:03:50.477Z,99600.19
2022-11-04T23:06:17.287Z,99603.59
2022-11-04T23:08:45.012Z,99609.53
2022-11-04T23:11:39.280Z,99605.34
2022-11-04T23:14:24.897Z,99607.94
2022-11-04T23:17:10.694Z,99603.78
2022-11-04T23:19:38.953Z,99603.00
2022-11-04T23:22:25.544Z,99609.72
2022-11-04T23:25:05.948Z,99606.38
2022-11-04T23:27:54.357Z,99614.84
2022-11-04T23:30:22.148Z,99602.19
2022-11-04T23:32:50.541Z,99604.78
2022-11-04T23:35:37.931Z,99602.22
2022-11-04T23:38:04.743Z,99600.56
2022-11-04T23:40:32.610Z,99595.50
2022-11-04T23:42:59.567Z,99602.25
2022-11-04T23:45:44.904Z,99608.19
2022-11-04T23:48:32.530Z,99609.88
2022-11-04T23:51:19.895Z,99610.75
2022-11-04T23:54:06.161Z,99614.16
2022-11-04T23:56:51.736Z,99621.78
2022-11-04T23:59:38.032Z,99621.78
